Datum - Zeit
Döttingen
TemperaturTaupunktFeuchteSolar Wind aus
Richtung
Windböenaus
Richtung
Luftdruck
(QFF)
RegenRegen
Stärke
12.04.2024 - 00.00Uhr8.9 °C6.7 °C86 %0.0 W/m²1.1 km/hSüd-SO4.0 km/hSüd-SO1033.2 hPa0.0 mm0.0 mm/h
12.04.2024 - 00.05Uhr8.7 °C6.5 °C86 %0.0 W/m²0.0 km/hSüd-SO0.0 km/hNorden1033.1 hPa0.0 mm0.0 mm/h
12.04.2024 - 00.10Uhr8.6 °C6.4 °C86 %0.0 W/m²2.3 km/hSüd-SO4.0 km/hSüd-SO1033.1 hPa0.0 mm0.0 mm/h
12.04.2024 - 00.15Uhr8.4 °C6.2 °C86 %0.0 W/m²2.8 km/hSüd-SO4.0 km/hSüd-SO1033.2 hPa0.0 mm0.0 mm/h
12.04.2024 - 00.20Uhr8.2 °C6.1 °C86 %0.0 W/m²2.1 km/hSüd-SO4.0 km/hSüd-SO1033.2 hPa0.0 mm0.0 mm/h
12.04.2024 - 00.25Uhr8.1 °C6.1 °C87 %0.0 W/m²5.8 km/hSüd-SO8.3 km/hSüd-SO1033.1 hPa0.0 mm0.0 mm/h
12.04.2024 - 00.30Uhr7.6 °C5.6 °C87 %0.0 W/m²7.0 km/hSüd-SO8.3 km/hSüd-SO1033.1 hPa0.0 mm0.0 mm/h
12.04.2024 - 00.35Uhr7.4 °C5.4 °C87 %0.0 W/m²7.1 km/hSüd-SO8.3 km/hSüd-SO1033.1 hPa0.0 mm0.0 mm/h
12.04.2024 - 00.40Uhr7.8 °C5.8 °C87 %0.0 W/m²1.7 km/hSüd-SO4.0 km/hSüd-SO1033.1 hPa0.0 mm0.0 mm/h
12.04.2024 - 00.45Uhr7.9 °C5.9 °C87 %0.0 W/m²0.0 km/hSüd-SO0.0 km/hNorden1033.2 hPa0.0 mm0.0 mm/h
12.04.2024 - 00.50Uhr8.0 °C6.0 °C87 %0.0 W/m²0.9 km/hSüd-SO1.8 km/hSüd-SO1033.1 hPa0.0 mm0.0 mm/h
12.04.2024 - 00.55Uhr7.9 °C5.8 °C87 %0.0 W/m²0.6 km/hSüd-SO1.8 km/hSüd-SO1033.1 hPa0.0 mm0.0 mm/h
12.04.2024 - 01.00Uhr8.0 °C5.9 °C87 %0.0 W/m²0.0 km/hSüd-SO0.0 km/hNorden1033.2 hPa0.0 mm0.0 mm/h
12.04.2024 - 01.05Uhr8.0 °C6.0 °C87 %0.0 W/m²0.0 km/hSüd-SO0.0 km/hNorden1033.2 hPa0.0 mm0.0 mm/h
12.04.2024 - 01.10Uhr8.0 °C6.0 °C87 %0.0 W/m²0.0 km/hSüd-SO0.0 km/hNorden1033.2 hPa0.0 mm0.0 mm/h
12.04.2024 - 01.15Uhr7.8 °C5.8 °C87 %0.0 W/m²0.0 km/hSüd-SO0.0 km/hNorden1033.3 hPa0.0 mm0.0 mm/h
12.04.2024 - 01.20Uhr7.9 °C5.8 °C87 %0.0 W/m²0.0 km/hSüd-SO0.0 km/hNorden1033.2 hPa0.0 mm0.0 mm/h
12.04.2024 - 01.25Uhr7.9 °C5.8 °C87 %0.0 W/m²0.0 km/hSüd-SO0.0 km/hNorden1033.4 hPa0.0 mm0.0 mm/h
12.04.2024 - 01.30Uhr7.9 °C5.9 °C87 %0.0 W/m²0.0 km/hSüd-SO0.0 km/hNorden1033.4 hPa0.0 mm0.0 mm/h
12.04.2024 - 01.35Uhr7.7 °C5.7 °C87 %0.0 W/m²0.0 km/hSüd-SO0.0 km/hNorden1033.4 hPa0.0 mm0.0 mm/h
12.04.2024 - 01.40Uhr7.5 °C5.5 °C87 %0.0 W/m²0.0 km/hSüd-SO0.0 km/hNorden1033.4 hPa0.0 mm0.0 mm/h
12.04.2024 - 01.45Uhr7.4 °C5.4 °C87 %0.0 W/m²0.0 km/hSüd-SO0.0 km/hNorden1033.5 hPa0.0 mm0.0 mm/h
12.04.2024 - 01.50Uhr7.2 °C5.2 °C87 %0.0 W/m²0.9 km/hSüd-SO4.0 km/hSüd-SO1033.5 hPa0.0 mm0.0 mm/h
12.04.2024 - 01.55Uhr7.2 °C5.2 °C87 %0.0 W/m²1.2 km/hSüd-SO4.0 km/hSüd-SO1033.5 hPa0.0 mm0.0 mm/h
12.04.2024 - 02.00Uhr7.3 °C5.1 °C86 %0.0 W/m²1.8 km/hSüd-SO4.0 km/hSüd-SO1033.4 hPa0.0 mm0.0 mm/h
12.04.2024 - 02.05Uhr7.3 °C5.1 °C86 %0.0 W/m²3.1 km/hSüd-SO8.3 km/hSüd-SO1033.5 hPa0.0 mm0.0 mm/h
12.04.2024 - 02.10Uhr7.2 °C5.0 °C86 %0.0 W/m²3.7 km/hSüd-SO8.3 km/hSüd-SO1033.4 hPa0.0 mm0.0 mm/h
12.04.2024 - 02.15Uhr7.1 °C5.0 °C86 %0.0 W/m²3.4 km/hSüd-SO8.3 km/hSüd-SO1033.4 hPa0.0 mm0.0 mm/h
12.04.2024 - 02.20Uhr7.1 °C4.9 °C86 %0.0 W/m²0.0 km/hSüd-SO0.0 km/hNorden1033.4 hPa0.0 mm0.0 mm/h
12.04.2024 - 02.25Uhr7.2 °C5.0 °C86 %0.0 W/m²8.0 km/hSüd-SO8.3 km/hSüd-SO1033.3 hPa0.0 mm0.0 mm/h
12.04.2024 - 02.30Uhr7.3 °C5.1 °C86 %0.0 W/m²6.6 km/hSüd-SO8.3 km/hSüd-SO1033.3 hPa0.0 mm0.0 mm/h
12.04.2024 - 02.35Uhr7.4 °C5.2 °C86 %0.0 W/m²1.1 km/hSüd-SO4.0 km/hSüd-SO1033.4 hPa0.0 mm0.0 mm/h
12.04.2024 - 02.40Uhr7.2 °C5.1 °C86 %0.0 W/m²0.6 km/hSüd-SO4.0 km/hSüd-SO1033.4 hPa0.0 mm0.0 mm/h
12.04.2024 - 02.45Uhr7.2 °C5.2 °C87 %0.0 W/m²2.2 km/hSüd-SO8.3 km/hSüd-SO1033.4 hPa0.0 mm0.0 mm/h
12.04.2024 - 02.50Uhr7.2 °C5.1 °C87 %0.0 W/m²0.0 km/hSüd-SO0.0 km/hNorden1033.4 hPa0.0 mm0.0 mm/h
12.04.2024 - 02.55Uhr7.0 °C4.9 °C87 %0.0 W/m²0.0 km/hSüd-SO0.0 km/hNorden1033.4 hPa0.0 mm0.0 mm/h
12.04.2024 - 03.00Uhr6.6 °C4.5 °C86 %0.0 W/m²0.0 km/hSüd-SO0.0 km/hNorden1033.5 hPa0.0 mm0.0 mm/h
12.04.2024 - 03.05Uhr6.7 °C4.5 °C86 %0.0 W/m²0.0 km/hSüd-SO0.0 km/hNorden1033.5 hPa0.0 mm0.0 mm/h
12.04.2024 - 03.10Uhr6.7 °C4.5 °C86 %0.0 W/m²1.0 km/hSüd-SO4.0 km/hSüd-SO1033.5 hPa0.0 mm0.0 mm/h
12.04.2024 - 03.15Uhr6.6 °C4.4 °C86 %0.0 W/m²1.9 km/hSüd-SO4.0 km/hSüd-SO1033.6 hPa0.0 mm0.0 mm/h
12.04.2024 - 03.20Uhr6.3 °C4.1 °C86 %0.0 W/m²2.4 km/hSüd-SO4.0 km/hSüd-SO1033.6 hPa0.0 mm0.0 mm/h
12.04.2024 - 03.25Uhr6.1 °C3.9 °C86 %0.0 W/m²1.0 km/hSüd-SO4.0 km/hSüd-SO1033.5 hPa0.0 mm0.0 mm/h
12.04.2024 - 03.30Uhr6.3 °C4.1 °C86 %0.0 W/m²0.0 km/hSüd-SO0.0 km/hNorden1033.5 hPa0.0 mm0.0 mm/h
12.04.2024 - 03.35Uhr6.6 °C4.4 °C86 %0.0 W/m²0.6 km/hSüd-SO1.8 km/hSüd-SO1033.5 hPa0.0 mm0.0 mm/h
12.04.2024 - 03.40Uhr6.5 °C4.3 °C86 %0.0 W/m²1.2 km/hSüd-SO4.0 km/hSüd-SO1033.5 hPa0.0 mm0.0 mm/h
12.04.2024 - 03.45Uhr6.2 °C4.0 °C86 %0.0 W/m²1.8 km/hSüd-SO4.0 km/hSüd-SO1033.4 hPa0.0 mm0.0 mm/h
12.04.2024 - 03.50Uhr6.2 °C4.0 °C86 %0.0 W/m²2.5 km/hSüd-SO4.0 km/hSüd-SO1033.4 hPa0.0 mm0.0 mm/h
12.04.2024 - 03.55Uhr5.9 °C3.7 °C86 %0.0 W/m²2.2 km/hSüd-SO4.0 km/hSüd-SO1033.4 hPa0.0 mm0.0 mm/h
12.04.2024 - 04.00Uhr6.1 °C3.8 °C86 %0.0 W/m²1.0 km/hSüd-SO4.0 km/hSüd-SO1033.4 hPa0.0 mm0.0 mm/h
12.04.2024 - 04.05Uhr6.2 °C3.9 °C85 %0.0 W/m²0.0 km/hSüd-SO0.0 km/hNorden1033.5 hPa0.0 mm0.0 mm/h
12.04.2024 - 04.10Uhr6.0 °C3.8 °C85 %0.0 W/m²0.0 km/hSüd-SO0.0 km/hNorden1033.6 hPa0.0 mm0.0 mm/h
12.04.2024 - 04.15Uhr6.1 °C3.8 °C85 %0.0 W/m²0.3 km/hSüd-SO1.8 km/hSüd-SO1033.7 hPa0.0 mm0.0 mm/h
12.04.2024 - 04.20Uhr6.2 °C4.0 °C85 %0.0 W/m²0.0 km/hSüd-SO0.0 km/hNorden1033.7 hPa0.0 mm0.0 mm/h
12.04.2024 - 04.25Uhr6.3 °C4.0 °C85 %0.0 W/m²0.0 km/hSüd-SO0.0 km/hNorden1033.7 hPa0.0 mm0.0 mm/h
12.04.2024 - 04.30Uhr6.2 °C3.9 °C86 %0.0 W/m²0.0 km/hSüd-SO0.0 km/hNorden1033.6 hPa0.0 mm0.0 mm/h
12.04.2024 - 04.35Uhr5.9 °C3.7 °C86 %0.0 W/m²2.6 km/hSüd-SO4.0 km/hSüd-SO1033.7 hPa0.0 mm0.0 mm/h
12.04.2024 - 04.40Uhr5.7 °C3.5 °C86 %0.0 W/m²1.5 km/hSüd-SO4.0 km/hSüd-SO1033.6 hPa0.0 mm0.0 mm/h
12.04.2024 - 04.45Uhr5.8 °C3.5 °C85 %0.0 W/m²0.6 km/hSüd-SO1.8 km/hSüd-SO1033.7 hPa0.0 mm0.0 mm/h
12.04.2024 - 04.50Uhr5.9 °C3.6 °C85 %0.0 W/m²1.9 km/hSüd-SO4.0 km/hSüd-SO1033.6 hPa0.0 mm0.0 mm/h
12.04.2024 - 04.55Uhr5.8 °C3.5 °C85 %0.0 W/m²0.0 km/hSüd-SO0.0 km/hNorden1033.7 hPa0.0 mm0.0 mm/h
12.04.2024 - 05.00Uhr5.9 °C3.6 °C85 %0.0 W/m²0.0 km/hSüd-SO0.0 km/hNorden1033.7 hPa0.0 mm0.0 mm/h
12.04.2024 - 05.05Uhr6.0 °C3.7 °C85 %0.0 W/m²0.0 km/hSüd-SO0.0 km/hNorden1033.7 hPa0.0 mm0.0 mm/h
12.04.2024 - 05.10Uhr5.8 °C3.5 °C85 %0.0 W/m²0.0 km/hSüd-SO0.0 km/hNorden1033.7 hPa0.0 mm0.0 mm/h
12.04.2024 - 05.15Uhr5.8 °C3.5 °C85 %0.0 W/m²0.0 km/hSüd-SO0.0 km/hNorden1033.7 hPa0.0 mm0.0 mm/h
12.04.2024 - 05.20Uhr5.8 °C3.5 °C85 %0.0 W/m²0.0 km/hSüd-SO0.0 km/hNorden1033.8 hPa0.0 mm0.0 mm/h
12.04.2024 - 05.25Uhr5.8 °C3.5 °C85 %0.0 W/m²0.0 km/hSüd-SO0.0 km/hNorden1033.8 hPa0.0 mm0.0 mm/h
12.04.2024 - 05.30Uhr5.8 °C3.5 °C85 %0.0 W/m²0.8 km/hSüd-SO1.8 km/hSüd-SO1033.7 hPa0.0 mm0.0 mm/h
12.04.2024 - 05.35Uhr5.3 °C3.0 °C85 %0.0 W/m²1.4 km/hSüd-SO4.0 km/hSüd-SO1033.7 hPa0.0 mm0.0 mm/h
12.04.2024 - 05.40Uhr5.5 °C3.2 °C85 %0.0 W/m²1.3 km/hSüd-SO4.0 km/hSüd-SO1033.7 hPa0.0 mm0.0 mm/h
12.04.2024 - 05.45Uhr5.5 °C3.2 °C85 %0.0 W/m²0.8 km/hSüd-SO1.8 km/hSüd-SO1033.8 hPa0.0 mm0.0 mm/h
12.04.2024 - 05.50Uhr5.4 °C3.1 °C85 %0.0 W/m²0.0 km/hSüd-SO0.0 km/hNorden1033.8 hPa0.0 mm0.0 mm/h
12.04.2024 - 05.55Uhr5.6 °C3.3 °C85 %0.0 W/m²0.0 km/hSüd-SO0.0 km/hNorden1033.8 hPa0.0 mm0.0 mm/h
12.04.2024 - 06.00Uhr5.6 °C3.2 °C84 %0.0 W/m²0.0 km/hSüd-SO0.0 km/hNorden1033.9 hPa0.0 mm0.0 mm/h
12.04.2024 - 06.05Uhr5.5 °C3.2 °C85 %0.0 W/m²0.0 km/hSüd-SO0.0 km/hNorden1033.8 hPa0.0 mm0.0 mm/h
12.04.2024 - 06.10Uhr5.4 °C3.0 °C85 %0.0 W/m²2.6 km/hSüd-SO4.0 km/hSüd-SO1033.8 hPa0.0 mm0.0 mm/h
12.04.2024 - 06.15Uhr5.4 °C3.0 °C84 %0.0 W/m²1.5 km/hSüd-SO4.0 km/hSüd-SO1033.9 hPa0.0 mm0.0 mm/h
12.04.2024 - 06.20Uhr5.4 °C3.0 °C84 %0.0 W/m²0.0 km/hSüd-SO0.0 km/hNorden1034.0 hPa0.0 mm0.0 mm/h
12.04.2024 - 06.25Uhr5.4 °C3.0 °C85 %0.0 W/m²2.2 km/hSüd-SO8.3 km/hSüd-SO1034.0 hPa0.0 mm0.0 mm/h
12.04.2024 - 06.30Uhr5.2 °C2.9 °C85 %0.0 W/m²2.8 km/hSüd-SO8.3 km/hSüd-SO1034.0 hPa0.0 mm0.0 mm/h
12.04.2024 - 06.35Uhr5.2 °C2.9 °C85 %0.0 W/m²2.8 km/hSüd-SO4.0 km/hSüd-SO1033.9 hPa0.0 mm0.0 mm/h
12.04.2024 - 06.40Uhr5.4 °C3.0 °C84 %5.0 W/m²1.9 km/hSüd-SO4.0 km/hSüd-SO1033.9 hPa0.0 mm0.0 mm/h
12.04.2024 - 06.45Uhr5.4 °C3.1 °C85 %9.0 W/m²0.7 km/hSüd-SO1.8 km/hSüd-SO1033.9 hPa0.0 mm0.0 mm/h
12.04.2024 - 06.50Uhr5.2 °C2.9 °C85 %11.0 W/m²0.9 km/hSüd-SO4.0 km/hSüd-SO1033.9 hPa0.0 mm0.0 mm/h
12.04.2024 - 06.55Uhr5.0 °C2.7 °C85 %14.0 W/m²0.3 km/hSüd-SO1.8 km/hSüd-SO1034.0 hPa0.0 mm0.0 mm/h
12.04.2024 - 07.00Uhr5.0 °C2.7 °C85 %18.0 W/m²0.6 km/hSüd-SO1.8 km/hSüd-SO1033.9 hPa0.0 mm0.0 mm/h
12.04.2024 - 07.05Uhr4.9 °C2.6 °C85 %25.0 W/m²2.0 km/hSüd-SO4.0 km/hSüd-SO1033.9 hPa0.0 mm0.0 mm/h
12.04.2024 - 07.10Uhr4.9 °C2.6 °C85 %30.0 W/m²0.4 km/hSüd-SO1.8 km/hSüd-SO1033.9 hPa0.0 mm0.0 mm/h
12.04.2024 - 07.15Uhr5.0 °C3.0 °C87 %35.0 W/m²0.0 km/hSüd-SO0.0 km/hNorden1033.9 hPa0.0 mm0.0 mm/h
12.04.2024 - 07.20Uhr5.2 °C2.8 °C84 %40.0 W/m²0.0 km/hSüd-SO0.0 km/hNorden1033.9 hPa0.0 mm0.0 mm/h
12.04.2024 - 07.25Uhr5.2 °C2.8 °C85 %46.0 W/m²2.3 km/hSüd-SO8.3 km/hSüd-SO1033.8 hPa0.0 mm0.0 mm/h
12.04.2024 - 07.30Uhr5.2 °C2.8 °C84 %49.0 W/m²1.4 km/hSüd-SO8.3 km/hSüdosten1033.8 hPa0.0 mm0.0 mm/h
12.04.2024 - 07.35Uhr5.3 °C2.8 °C84 %54.0 W/m²0.0 km/hNord-NW0.0 km/hNorden1033.9 hPa0.0 mm0.0 mm/h
12.04.2024 - 07.40Uhr5.5 °C3.0 °C84 %56.0 W/m²0.0 km/hNord-NW0.0 km/hNorden1033.9 hPa0.0 mm0.0 mm/h
12.04.2024 - 07.45Uhr5.7 °C3.2 °C84 %60.0 W/m²0.0 km/hNord-NW0.0 km/hNorden1033.9 hPa0.0 mm0.0 mm/h
12.04.2024 - 07.50Uhr5.8 °C3.3 °C84 %62.0 W/m²0.0 km/hNord-NW0.0 km/hNorden1033.8 hPa0.0 mm0.0 mm/h
12.04.2024 - 07.55Uhr6.0 °C3.5 °C84 %114.0 W/m²0.0 km/hNord-NW0.0 km/hNorden1033.9 hPa0.0 mm0.0 mm/h
12.04.2024 - 08.00Uhr6.2 °C3.7 °C84 %127.0 W/m²0.0 km/hNord-NW0.0 km/hNorden1033.9 hPa0.0 mm0.0 mm/h
12.04.2024 - 08.05Uhr6.3 °C3.8 °C84 %146.0 W/m²0.0 km/hNord-NW0.0 km/hNorden1033.9 hPa0.0 mm0.0 mm/h
12.04.2024 - 08.10Uhr6.4 °C4.0 °C84 %158.0 W/m²0.5 km/hNord-NW1.8 km/hNord-NW1033.8 hPa0.0 mm0.0 mm/h
12.04.2024 - 08.15Uhr6.8 °C4.4 °C85 %178.0 W/m²0.7 km/hNord-NW1.8 km/hNord-NW1033.8 hPa0.0 mm0.0 mm/h
12.04.2024 - 08.20Uhr7.3 °C4.9 °C85 %178.0 W/m²0.0 km/hNord-NW0.0 km/hNorden1033.8 hPa0.0 mm0.0 mm/h
12.04.2024 - 08.25Uhr7.7 °C5.3 °C85 %172.0 W/m²0.0 km/hNord-NW0.0 km/hNorden1033.8 hPa0.0 mm0.0 mm/h
12.04.2024 - 08.30Uhr8.0 °C5.8 °C86 %204.0 W/m²0.0 km/hNord-NW0.0 km/hNorden1033.7 hPa0.0 mm0.0 mm/h
12.04.2024 - 08.35Uhr8.4 °C6.2 °C86 %236.0 W/m²2.0 km/hNord-NW8.3 km/hNord-NW1033.7 hPa0.0 mm0.0 mm/h
12.04.2024 - 08.40Uhr7.9 °C5.9 °C87 %236.0 W/m²2.3 km/hNord-NW5.8 km/hNord-NW1033.6 hPa0.0 mm0.0 mm/h
12.04.2024 - 08.45Uhr8.2 °C6.2 °C87 %248.0 W/m²0.0 km/hNord-NW0.0 km/hNorden1033.7 hPa0.0 mm0.0 mm/h
12.04.2024 - 08.50Uhr8.7 °C6.7 °C87 %260.0 W/m²0.6 km/hNord-NW1.8 km/hNord-NW1033.8 hPa0.0 mm0.0 mm/h
12.04.2024 - 08.55Uhr8.7 °C6.5 °C86 %276.0 W/m²0.6 km/hNord-NW1.8 km/hNord-NW1033.8 hPa0.0 mm0.0 mm/h
12.04.2024 - 09.00Uhr9.1 °C6.9 °C86 %283.0 W/m²0.8 km/hNord-NW4.0 km/hNord-NW1033.9 hPa0.0 mm0.0 mm/h
12.04.2024 - 09.05Uhr9.6 °C7.1 °C85 %308.0 W/m²0.9 km/hNord-NW4.0 km/hNord-NW1033.9 hPa0.0 mm0.0 mm/h
12.04.2024 - 09.10Uhr9.2 °C6.7 °C85 %323.0 W/m²0.4 km/hNord-NW1.8 km/hNord-NW1033.9 hPa0.0 mm0.0 mm/h
12.04.2024 - 09.15Uhr9.7 °C7.4 °C85 %341.0 W/m²0.4 km/hNord-NW1.8 km/hNord-NW1033.9 hPa0.0 mm0.0 mm/h
12.04.2024 - 09.20Uhr10.8 °C8.1 °C83 %360.0 W/m²0.0 km/hNord-NW0.0 km/hNorden1034.0 hPa0.0 mm0.0 mm/h
12.04.2024 - 09.25Uhr10.6 °C7.6 °C81 %359.0 W/m²0.0 km/hNord-NW0.0 km/hNorden1033.9 hPa0.0 mm0.0 mm/h
12.04.2024 - 09.30Uhr10.4 °C7.5 °C82 %355.0 W/m²1.7 km/hNord-NW4.0 km/hNorden1034.0 hPa0.0 mm0.0 mm/h
12.04.2024 - 09.35Uhr10.2 °C7.4 °C83 %385.0 W/m²0.4 km/hOst-SO4.0 km/hOst-SO1034.1 hPa0.0 mm0.0 mm/h
12.04.2024 - 09.40Uhr10.4 °C7.6 °C82 %415.0 W/m²1.7 km/hSüd-SW8.3 km/hSüd-SW1034.1 hPa0.0 mm0.0 mm/h
12.04.2024 - 09.45Uhr10.8 °C7.9 °C82 %429.0 W/m²0.0 km/hSüd-SW0.0 km/hNorden1034.1 hPa0.0 mm0.0 mm/h
12.04.2024 - 09.50Uhr11.0 °C7.9 °C82 %446.0 W/m²0.5 km/hSüd-SW1.8 km/hSüd-SW1034.0 hPa0.0 mm0.0 mm/h
12.04.2024 - 09.55Uhr11.4 °C8.2 °C81 %461.0 W/m²2.9 km/hNord-NO14.0 km/hNordosten1033.9 hPa0.0 mm0.0 mm/h
12.04.2024 - 10.00Uhr11.7 °C8.4 °C80 %476.0 W/m²2.6 km/hSüd-SO8.3 km/hSüd-SO1033.7 hPa0.0 mm0.0 mm/h
12.04.2024 - 10.05Uhr12.2 °C8.9 °C80 %489.0 W/m²2.3 km/hSüd-SO8.3 km/hSüd-SO1033.5 hPa0.0 mm0.0 mm/h
12.04.2024 - 10.10Uhr12.6 °C8.9 °C78 %499.0 W/m²2.2 km/hSüd-SO8.3 km/hSüd-SO1033.5 hPa0.0 mm0.0 mm/h
12.04.2024 - 10.15Uhr13.1 °C9.2 °C77 %512.0 W/m²1.1 km/hSüd-SO4.0 km/hSüd-SO1033.5 hPa0.0 mm0.0 mm/h
12.04.2024 - 10.20Uhr13.5 °C9.0 °C74 %526.0 W/m²1.7 km/hSüd-SO4.0 km/hSüd-SO1033.5 hPa0.0 mm0.0 mm/h
12.04.2024 - 10.25Uhr13.6 °C8.7 °C72 %536.0 W/m²1.8 km/hSüd-SO4.0 km/hSüd-SO1033.4 hPa0.0 mm0.0 mm/h
12.04.2024 - 10.30Uhr13.5 °C9.0 °C74 %550.0 W/m²2.9 km/hSüd-SO8.3 km/hSüd-SO1033.4 hPa0.0 mm0.0 mm/h
12.04.2024 - 10.35Uhr13.5 °C9.2 °C75 %563.0 W/m²3.9 km/hSüd-SO8.3 km/hSüd-SO1033.4 hPa0.0 mm0.0 mm/h
12.04.2024 - 10.40Uhr13.4 °C9.1 °C75 %575.0 W/m²4.9 km/hSüd-SO10.1 km/hSüd-SO1033.4 hPa0.0 mm0.0 mm/h
12.04.2024 - 10.45Uhr13.9 °C9.3 °C74 %582.0 W/m²3.8 km/hSüd-SO8.3 km/hSüd-SO1033.4 hPa0.0 mm0.0 mm/h
12.04.2024 - 10.50Uhr14.2 °C9.2 °C72 %592.0 W/m²5.2 km/hSüd-SO8.3 km/hSüd-SO1033.5 hPa0.0 mm0.0 mm/h
12.04.2024 - 10.55Uhr14.4 °C9.4 °C72 %603.0 W/m²3.5 km/hSüd-SO8.3 km/hSüd-SO1033.5 hPa0.0 mm0.0 mm/h
12.04.2024 - 11.00Uhr14.7 °C9.4 °C71 %617.0 W/m²3.4 km/hSüd-SO8.3 km/hSüd-SO1033.5 hPa0.0 mm0.0 mm/h
12.04.2024 - 11.05Uhr15.0 °C9.8 °C71 %628.0 W/m²4.4 km/hSüd-SO8.3 km/hSüd-SO1033.5 hPa0.0 mm0.0 mm/h
12.04.2024 - 11.10Uhr15.3 °C9.6 °C69 %635.0 W/m²4.7 km/hSüd-SO8.3 km/hSüd-SO1033.4 hPa0.0 mm0.0 mm/h
12.04.2024 - 11.15Uhr15.3 °C9.6 °C69 %647.0 W/m²2.6 km/hSüd-SO8.3 km/hSüd-SO1033.4 hPa0.0 mm0.0 mm/h
12.04.2024 - 11.20Uhr15.8 °C10.3 °C70 %657.0 W/m²3.4 km/hSüd-SO8.3 km/hSüd-SO1033.4 hPa0.0 mm0.0 mm/h
12.04.2024 - 11.25Uhr16.3 °C10.3 °C68 %668.0 W/m²4.0 km/hSüd-SO8.3 km/hSüd-SO1033.3 hPa0.0 mm0.0 mm/h
12.04.2024 - 11.30Uhr16.5 °C10.4 °C67 %677.0 W/m²2.7 km/hSüd-SO8.3 km/hSüd-SO1033.2 hPa0.0 mm0.0 mm/h
12.04.2024 - 11.35Uhr16.7 °C10.2 °C66 %684.0 W/m²4.2 km/hSüd-SO8.3 km/hSüd-SO1033.1 hPa0.0 mm0.0 mm/h
12.04.2024 - 11.40Uhr16.7 °C10.2 °C65 %694.0 W/m²4.1 km/hSüd-SO12.2 km/hSüd-SO1033.1 hPa0.0 mm0.0 mm/h
12.04.2024 - 11.45Uhr16.9 °C10.2 °C65 %700.0 W/m²5.9 km/hSüd-SO12.2 km/hSüd-SO1033.1 hPa0.0 mm0.0 mm/h
12.04.2024 - 11.50Uhr16.9 °C10.2 °C64 %707.0 W/m²5.4 km/hSüden8.3 km/hSüden1033.1 hPa0.0 mm0.0 mm/h
12.04.2024 - 11.55Uhr17.3 °C10.5 °C64 %714.0 W/m²4.1 km/hSüden8.3 km/hSüden1033.1 hPa0.0 mm0.0 mm/h
12.04.2024 - 12.00Uhr17.7 °C10.5 °C63 %719.0 W/m²3.1 km/hSüd-SW8.3 km/hSüden1033.0 hPa0.0 mm0.0 mm/h
12.04.2024 - 12.05Uhr17.5 °C10.2 °C63 %728.0 W/m²2.2 km/hSüd-SW5.8 km/hSüd-SW1033.0 hPa0.0 mm0.0 mm/h
12.04.2024 - 12.10Uhr17.8 °C10.5 °C62 %733.0 W/m²5.2 km/hSüd-SW8.3 km/hSüd-SW1032.9 hPa0.0 mm0.0 mm/h
12.04.2024 - 12.15Uhr17.8 °C10.4 °C62 %740.0 W/m²5.9 km/hSüd-SW8.3 km/hSüd-SW1032.8 hPa0.0 mm0.0 mm/h
12.04.2024 - 12.20Uhr18.0 °C10.3 °C61 %745.0 W/m²5.0 km/hSüdwesten8.3 km/hSüdwesten1032.8 hPa0.0 mm0.0 mm/h
12.04.2024 - 12.25Uhr18.2 °C10.5 °C61 %751.0 W/m²5.0 km/hSüdwesten8.3 km/hSüdwesten1032.8 hPa0.0 mm0.0 mm/h
12.04.2024 - 12.30Uhr18.7 °C10.8 °C60 %759.0 W/m²4.7 km/hSüdwesten12.2 km/hWest-NW1032.8 hPa0.0 mm0.0 mm/h
12.04.2024 - 12.35Uhr19.0 °C10.9 °C60 %761.0 W/m²6.3 km/hNordwesten10.1 km/hWest-NW1032.7 hPa0.0 mm0.0 mm/h
12.04.2024 - 12.40Uhr19.3 °C11.0 °C59 %770.0 W/m²6.4 km/hNordwesten12.2 km/hNordwesten1032.7 hPa0.0 mm0.0 mm/h
12.04.2024 - 12.45Uhr19.3 °C10.8 °C58 %775.0 W/m²8.3 km/hNordwesten16.2 km/hNord-NW1032.7 hPa0.0 mm0.0 mm/h
12.04.2024 - 12.50Uhr19.4 °C11.1 °C59 %786.0 W/m²4.6 km/hNord-NW14.0 km/hNord-NW1032.8 hPa0.0 mm0.0 mm/h
12.04.2024 - 12.55Uhr19.7 °C11.0 °C57 %789.0 W/m²4.1 km/hNord-NW12.2 km/hNord-NW1032.6 hPa0.0 mm0.0 mm/h
12.04.2024 - 13.00Uhr19.7 °C10.7 °C56 %791.0 W/m²5.1 km/hNord-NW8.3 km/hNord-NW1032.5 hPa0.0 mm0.0 mm/h
12.04.2024 - 13.05Uhr19.7 °C10.6 °C56 %789.0 W/m²2.8 km/hNord-NW8.3 km/hNord-NW1032.4 hPa0.0 mm0.0 mm/h
12.04.2024 - 13.10Uhr19.8 °C10.7 °C56 %779.0 W/m²4.7 km/hNord-NW8.3 km/hNord-NW1032.3 hPa0.0 mm0.0 mm/h
12.04.2024 - 13.15Uhr20.1 °C11.2 °C56 %788.0 W/m²3.6 km/hNord-NW8.3 km/hNord-NW1032.3 hPa0.0 mm0.0 mm/h
12.04.2024 - 13.20Uhr20.0 °C10.2 °C53 %800.0 W/m²1.9 km/hNord-NW5.8 km/hNord-NW1032.2 hPa0.0 mm0.0 mm/h
12.04.2024 - 13.25Uhr20.1 °C11.0 °C56 %795.0 W/m²3.5 km/hNord-NW5.8 km/hNord-NW1032.1 hPa0.0 mm0.0 mm/h
12.04.2024 - 13.30Uhr20.7 °C10.9 °C53 %824.0 W/m²3.1 km/hNord-NW8.3 km/hNord-NW1032.1 hPa0.0 mm0.0 mm/h
12.04.2024 - 13.35Uhr20.5 °C10.5 °C53 %824.0 W/m²3.7 km/hNord-NW8.3 km/hNord-NW1032.0 hPa0.0 mm0.0 mm/h
12.04.2024 - 13.40Uhr20.7 °C11.1 °C54 %775.0 W/m²4.5 km/hNord-NW8.3 km/hNord-NW1032.0 hPa0.0 mm0.0 mm/h
12.04.2024 - 13.45Uhr20.9 °C11.3 °C54 %784.0 W/m²2.6 km/hNord-NW5.8 km/hNord-NW1032.0 hPa0.0 mm0.0 mm/h
12.04.2024 - 13.50Uhr21.2 °C11.1 °C52 %849.0 W/m²2.9 km/hNord-NW8.3 km/hNord-NW1031.9 hPa0.0 mm0.0 mm/h
12.04.2024 - 13.55Uhr21.2 °C11.1 °C53 %877.0 W/m²2.6 km/hNord-NW8.3 km/hNord-NW1031.8 hPa0.0 mm0.0 mm/h
12.04.2024 - 14.00Uhr21.4 °C10.5 °C50 %844.0 W/m²2.2 km/hNord-NW5.8 km/hNord-NW1031.8 hPa0.0 mm0.0 mm/h
12.04.2024 - 14.05Uhr21.3 °C11.4 °C54 %721.0 W/m²2.6 km/hNord-NW5.8 km/hNord-NW1031.7 hPa0.0 mm0.0 mm/h
12.04.2024 - 14.10Uhr21.4 °C10.5 °C50 %698.0 W/m²5.6 km/hNord-NW8.3 km/hNord-NW1031.7 hPa0.0 mm0.0 mm/h
12.04.2024 - 14.15Uhr21.3 °C11.0 °C52 %673.0 W/m²4.6 km/hNord-NW8.3 km/hNord-NW1031.6 hPa0.0 mm0.0 mm/h
12.04.2024 - 14.20Uhr21.2 °C10.4 °C50 %796.0 W/m²5.0 km/hNord-NW8.3 km/hNord-NW1031.5 hPa0.0 mm0.0 mm/h
12.04.2024 - 14.25Uhr21.7 °C10.6 °C50 %795.0 W/m²5.8 km/hNord-NW8.3 km/hNord-NW1031.4 hPa0.0 mm0.0 mm/h
12.04.2024 - 14.30Uhr22.0 °C10.5 °C48 %779.0 W/m²6.3 km/hNord-NW8.3 km/hNord-NW1031.4 hPa0.0 mm0.0 mm/h
12.04.2024 - 14.35Uhr21.9 °C10.2 °C47 %782.0 W/m²6.0 km/hNord-NW8.3 km/hNord-NW1031.4 hPa0.0 mm0.0 mm/h
12.04.2024 - 14.40Uhr22.2 °C10.6 °C48 %780.0 W/m²3.9 km/hNord-NW8.3 km/hNord-NW1031.3 hPa0.0 mm0.0 mm/h
12.04.2024 - 14.45Uhr22.3 °C10.7 °C48 %782.0 W/m²3.9 km/hNord-NW8.3 km/hNord-NW1031.3 hPa0.0 mm0.0 mm/h
12.04.2024 - 14.50Uhr22.5 °C10.4 °C46 %773.0 W/m²3.3 km/hNord-NW8.3 km/hNord-NW1031.3 hPa0.0 mm0.0 mm/h
12.04.2024 - 14.55Uhr22.0 °C9.8 °C46 %779.0 W/m²3.4 km/hNord-NW8.3 km/hNord-NW1031.2 hPa0.0 mm0.0 mm/h
12.04.2024 - 15.00Uhr22.2 °C9.9 °C46 %747.0 W/m²4.9 km/hNord-NW8.3 km/hNord-NW1031.2 hPa0.0 mm0.0 mm/h
12.04.2024 - 15.05Uhr22.4 °C9.6 °C44 %775.0 W/m²5.3 km/hNord-NW8.3 km/hNord-NW1031.0 hPa0.0 mm0.0 mm/h
12.04.2024 - 15.10Uhr22.7 °C10.2 °C45 %788.0 W/m²5.2 km/hNord-NW12.2 km/hNord-NW1030.9 hPa0.0 mm0.0 mm/h
12.04.2024 - 15.15Uhr22.8 °C10.0 °C44 %782.0 W/m²4.9 km/hNord-NW8.3 km/hNord-NW1030.9 hPa0.0 mm0.0 mm/h
12.04.2024 - 15.20Uhr22.7 °C10.3 °C45 %798.0 W/m²6.9 km/hNord-NW8.3 km/hNord-NW1030.7 hPa0.0 mm0.0 mm/h
12.04.2024 - 15.25Uhr22.6 °C9.5 °C43 %798.0 W/m²5.1 km/hNord-NW8.3 km/hNord-NW1030.7 hPa0.0 mm0.0 mm/h
12.04.2024 - 15.30Uhr22.4 °C10.0 °C45 %698.0 W/m²3.4 km/hNord-NW8.3 km/hNord-NW1030.6 hPa0.0 mm0.0 mm/h
12.04.2024 - 15.35Uhr22.8 °C10.3 °C45 %728.0 W/m²4.0 km/hNord-NW8.3 km/hNord-NW1030.5 hPa0.0 mm0.0 mm/h
12.04.2024 - 15.40Uhr22.8 °C10.1 °C45 %522.0 W/m²3.9 km/hNord-NW8.3 km/hNord-NW1030.4 hPa0.0 mm0.0 mm/h
12.04.2024 - 15.45Uhr22.6 °C9.7 °C44 %555.0 W/m²3.9 km/hNord-NW5.8 km/hNord-NW1030.3 hPa0.0 mm0.0 mm/h
12.04.2024 - 15.50Uhr22.8 °C10.5 °C46 %638.0 W/m²4.3 km/hNord-NW8.3 km/hNord-NW1030.2 hPa0.0 mm0.0 mm/h
12.04.2024 - 15.55Uhr22.9 °C9.8 °C43 %527.0 W/m²5.2 km/hNord-NW12.2 km/hNord-NW1030.2 hPa0.0 mm0.0 mm/h
12.04.2024 - 16.00Uhr22.6 °C10.1 °C45 %476.0 W/m²5.7 km/hNord-NW8.3 km/hNord-NW1030.2 hPa0.0 mm0.0 mm/h
12.04.2024 - 16.05Uhr22.2 °C9.6 °C45 %325.0 W/m²4.2 km/hNord-NW8.3 km/hNord-NW1030.1 hPa0.0 mm0.0 mm/h
12.04.2024 - 16.10Uhr22.1 °C9.8 °C45 %589.0 W/m²2.1 km/hNord-NW5.8 km/hNord-NW1030.1 hPa0.0 mm0.0 mm/h
12.04.2024 - 16.15Uhr22.2 °C10.0 °C46 %657.0 W/m²1.2 km/hNord-NW4.0 km/hNord-NW1030.0 hPa0.0 mm0.0 mm/h
12.04.2024 - 16.20Uhr23.1 °C10.5 °C45 %589.0 W/m²3.1 km/hNord-NW5.8 km/hNord-NW1030.0 hPa0.0 mm0.0 mm/h
12.04.2024 - 16.25Uhr23.3 °C9.7 °C42 %536.0 W/m²4.3 km/hNord-NW8.3 km/hNord-NW1029.9 hPa0.0 mm0.0 mm/h
12.04.2024 - 16.30Uhr23.1 °C9.4 °C42 %490.0 W/m²5.3 km/hNord-NW8.3 km/hNord-NW1029.9 hPa0.0 mm0.0 mm/h
12.04.2024 - 16.35Uhr22.7 °C9.6 °C43 %469.0 W/m²2.5 km/hNord-NW5.8 km/hNord-NW1029.8 hPa0.0 mm0.0 mm/h
12.04.2024 - 16.40Uhr23.0 °C10.1 °C44 %506.0 W/m²4.9 km/hNord-NW8.3 km/hNord-NW1029.8 hPa0.0 mm0.0 mm/h
12.04.2024 - 16.45Uhr23.0 °C8.9 °C41 %420.0 W/m²5.4 km/hNord-NW12.2 km/hNord-NW1029.8 hPa0.0 mm0.0 mm/h
12.04.2024 - 16.50Uhr22.7 °C9.0 °C42 %406.0 W/m²5.3 km/hNord-NW8.3 km/hNord-NW1029.8 hPa0.0 mm0.0 mm/h
12.04.2024 - 16.55Uhr22.5 °C8.6 °C41 %406.0 W/m²2.9 km/hNord-NW5.8 km/hNord-NW1029.7 hPa0.0 mm0.0 mm/h
12.04.2024 - 17.00Uhr22.8 °C9.5 °C43 %408.0 W/m²3.6 km/hNord-NW8.3 km/hNord-NW1029.7 hPa0.0 mm0.0 mm/h
12.04.2024 - 17.05Uhr22.9 °C9.0 °C41 %350.0 W/m²3.6 km/hNord-NW8.3 km/hNord-NW1029.6 hPa0.0 mm0.0 mm/h
12.04.2024 - 17.10Uhr22.7 °C8.8 °C41 %371.0 W/m²3.5 km/hNord-NW8.3 km/hNord-NW1029.6 hPa0.0 mm0.0 mm/h
12.04.2024 - 17.15Uhr22.7 °C9.8 °C44 %2.7 km/hNord-NW5.8 km/hNord-NW0.0 mm0.0 mm/h